Time;durP1;ratioP1;P1;durP2;ratioP2;P2;SDS_P1;SDS_P2;PMS_P1;PMS_P2;Temp;Humidity;BMP_temperature;BMP_pressure;BME280_temperature;BME280_humidity;BME280_pressure;Samples;Min_cycle;Max_cycle;Signal;HPM_P1;HPM_P2
2023/01/13 00:01:18;;;;;;;1.50;1.13;;;;;;;8.60;100.00;99573.88;5000521;28;20075;-85
2023/01/13 00:03:49;;;;;;;1.47;1.10;;;;;;;8.53;100.00;99593.38;5016696;28;20106;-86
2023/01/13 00:06:18;;;;;;;2.92;1.10;;;;;;;8.54;100.00;99595.09;5048921;28;20123;-87
2023/01/13 00:08:49;;;;;;;1.53;1.00;;;;;;;8.58;100.00;99599.41;4991619;28;20050;-87
2023/01/13 00:11:16;;;;;;;1.42;1.10;;;;;;;8.60;100.00;99593.16;5018910;28;20036;-85
2023/01/13 00:13:46;;;;;;;1.50;1.00;;;;;;;8.58;100.00;99602.88;5007259;28;20114;-86
2023/01/13 00:16:15;;;;;;;1.20;0.90;;;;;;;8.52;100.00;99602.19;5004134;28;20045;-87
2023/01/13 00:18:42;;;;;;;1.93;1.00;;;;;;;8.57;100.00;99609.03;5020208;28;20037;-88
2023/01/13 00:21:16;;;;;;;1.10;0.93;;;;;;;8.54;100.00;99603.88;5004177;28;20033;-86
2023/01/13 00:23:43;;;;;;;1.20;1.00;;;;;;;8.50;100.00;99599.63;5016450;28;20137;-87
2023/01/13 00:26:13;;;;;;;1.17;0.80;;;;;;;8.47;100.00;99604.94;5003893;28;20592;-85
2023/01/13 00:28:39;;;;;;;1.87;1.00;;;;;;;8.58;100.00;99596.75;5019067;28;20097;-85
2023/01/13 00:31:08;;;;;;;0.87;0.87;;;;;;;8.59;100.00;99595.84;5003804;28;20037;-87
2023/01/13 00:33:35;;;;;;;1.30;0.80;;;;;;;8.60;100.00;99597.56;4999964;28;20041;-86
2023/01/13 00:36:05;;;;;;;1.47;0.70;;;;;;;8.50;100.00;99594.34;5003590;28;20051;-86
2023/01/13 00:38:33;;;;;;;1.15;0.90;;;;;;;8.56;100.00;99588.03;5016192;28;20042;-86
2023/01/13 00:41:03;;;;;;;0.80;0.80;;;;;;;8.56;100.00;99588.03;5000367;28;20054;-86
2023/01/13 00:43:32;;;;;;;1.63;0.90;;;;;;;8.60;100.00;99590.53;5030905;28;20056;-85
2023/01/13 00:45:59;;;;;;;0.85;0.70;;;;;;;8.55;100.00;99587.16;5019889;28;20049;-88
2023/01/13 00:48:26;;;;;;;0.80;0.80;;;;;;;8.51;100.00;99584.69;5019286;28;20049;-85
2023/01/13 00:50:55;;;;;;;0.70;0.70;;;;;;;8.55;100.00;99583.66;5019563;28;20033;-86
2023/01/13 00:53:22;;;;;;;1.40;0.80;;;;;;;8.54;100.00;99589.84;5003593;28;20449;-86
2023/01/13 00:56:00;;;;;;;1.38;0.70;;;;;;;8.48;100.00;99584.75;5019381;28;20393;-87
2023/01/13 00:58:29;;;;;;;0.73;0.70;;;;;;;8.55;100.00;99587.16;5002305;28;20049;-86
2023/01/13 01:01:06;;;;;;;0.57;0.57;;;;;;;8.59;100.00;99582.69;4999344;28;20050;-87
2023/01/13 01:03:34;;;;;;;0.70;0.70;;;;;;;8.57;100.00;99581.84;5035277;28;20041;-86
2023/01/13 01:06:12;;;;;;;0.93;0.70;;;;;;;8.51;100.00;99590.81;4999264;28;20045;-87
2023/01/13 01:08:39;;;;;;;0.70;0.60;;;;;;;8.54;100.00;99589.84;4996804;28;20087;-86
2023/01/13 01:11:09;;;;;;;0.82;0.60;;;;;;;8.54;100.00;99587.22;5018627;28;20041;-87
2023/01/13 01:13:36;;;;;;;0.63;0.60;;;;;;;8.62;100.00;99590.47;5002930;28;20045;-88
2023/01/13 01:16:08;;;;;;;0.70;0.60;;;;;;;8.51;100.00;99595.22;5061025;23;20038;-83
2023/01/13 01:18:37;;;;;;;1.03;0.60;;;;;;;8.58;100.00;99596.75;5007233;28;20049;-83
2023/01/13 01:21:05;;;;;;;0.95;0.60;;;;;;;8.55;100.00;99597.69;4982668;28;20061;-82
2023/01/13 01:23:32;;;;;;;1.67;0.68;;;;;;;8.50;100.00;99596.13;4970213;28;20415;-83
2023/01/13 01:26:09;;;;;;;0.60;0.60;;;;;;;8.56;100.00;99593.28;4963773;28;20049;-83
2023/01/13 01:28:36;;;;;;;3.47;0.60;;;;;;;8.58;100.00;99591.50;4977987;28;20523;-82
2023/01/13 01:31:27;;;;;;;0.90;0.50;;;;;;;8.55;100.00;99595.06;4982183;28;20034;-83
2023/01/13 01:33:54;;;;;;;0.83;0.50;;;;;;;8.51;100.00;99598.69;4976980;28;20065;-85
2023/01/13 01:36:22;;;;;;;1.25;0.80;;;;;;;8.62;100.00;99587.84;5000051;28;20049;-82
2023/01/13 01:38:49;;;;;;;0.88;0.60;;;;;;;8.54;100.00;99584.56;4996890;28;20081;-84
2023/01/13 01:41:26;;;;;;;0.88;0.60;;;;;;;8.61;100.00;99589.63;4980462;28;20041;-83
2023/01/13 01:43:58;;;;;;;1.00;0.60;;;;;;;8.62;100.00;99588.72;4963410;28;20042;-82
2023/01/13 01:46:39;;;;;;;0.53;0.53;;;;;;;8.55;100.00;99592.44;4984147;28;20038;-84
2023/01/13 01:49:15;;;;;;;1.63;0.60;;;;;;;8.62;100.00;99593.13;4958748;28;20049;-83
2023/01/13 01:51:52;;;;;;;0.40;0.40;;;;;;;8.68;100.00;99591.16;4995228;28;20038;-83
2023/01/13 01:54:23;;;;;;;1.33;0.60;;;;;;;8.67;100.00;99592.09;4960449;28;20078;-82
2023/01/13 01:56:50;;;;;;;1.13;0.57;;;;;;;8.66;100.00;99586.84;4962473;28;20038;-84
2023/01/13 01:59:17;;;;;;;0.65;0.50;;;;;;;8.68;100.00;99585.91;4994749;28;20108;-82
2023/01/13 02:01:44;;;;;;;0.70;0.63;;;;;;;8.63;100.00;99584.31;4995837;28;20068;-83
2023/01/13 02:04:16;;;;;;;0.90;0.60;;;;;;;8.64;100.00;99578.13;4990379;28;20034;-82
2023/01/13 02:06:43;;;;;;;0.77;0.60;;;;;;;8.66;100.00;99581.56;4984887;28;20057;-82
2023/01/13 02:09:10;;;;;;;0.77;0.60;;;;;;;8.71;100.00;99580.53;4990244;28;20068;-82
2023/01/13 02:14:25;;;;;;;0.73;0.70;;;;;;;8.69;100.00;99578.88;4994339;28;20462;-82
2023/01/13 02:17:19;;;;;;;0.60;0.60;;;;;;;8.72;100.00;99574.34;4977594;28;20057;-83
2023/01/13 02:20:08;;;;;;;1.38;0.60;;;;;;;8.71;100.00;99577.91;4978309;28;20037;-83
2023/01/13 02:22:45;;;;;;;0.73;0.70;;;;;;;8.73;100.00;99570.81;4994610;28;20132;-82
2023/01/13 02:25:33;;;;;;;0.70;0.70;;;;;;;8.71;100.00;99567.38;4978458;28;20069;-83
2023/01/13 02:28:12;;;;;;;0.95;0.60;;;;;;;8.67;100.00;99562.25;4977793;28;20046;-82
2023/01/13 02:33:38;;;;;;;0.80;0.70;;;;;;;8.65;100.00;99557.00;4996196;28;20041;-83
2023/01/13 02:36:14;;;;;;;0.68;0.52;;;;;;;8.56;100.00;99557.28;4978096;28;20494;-83
2023/01/13 02:38:53;;;;;;;0.80;0.80;;;;;;;8.52;100.00;99557.44;4977307;28;20513;-83
2023/01/13 02:44:12;;;;;;;1.10;1.00;;;;;;;8.51;100.00;99556.59;4993692;28;20052;-84
2023/01/13 02:46:43;;;;;;;0.50;0.50;;;;;;;8.49;100.00;99547.84;4957827;28;20495;-83
2023/01/13 02:49:16;;;;;;;0.85;0.70;;;;;;;8.52;100.00;99546.91;4977850;28;20594;-83
2023/01/13 02:51:44;;;;;;;1.40;0.70;;;;;;;8.51;100.00;99545.19;4974250;28;20571;-84
2023/01/13 02:54:19;;;;;;;0.85;0.60;;;;;;;8.43;100.00;99541.03;4975167;28;20108;-83
2023/01/13 02:56:47;;;;;;;0.73;0.70;;;;;;;8.49;100.00;99544.34;4963664;28;20133;-84
2023/01/13 02:59:14;;;;;;;0.93;0.63;;;;;;;8.41;100.00;99541.97;4977197;28;20104;-84
2023/01/13 03:01:41;;;;;;;0.63;0.53;;;;;;;8.35;100.00;99542.16;4992154;28;20038;-84
2023/01/13 03:04:12;;;;;;;0.70;0.60;;;;;;;8.30;100.00;99536.97;4994120;28;20426;-85
2023/01/13 03:06:58;;;;;;;0.50;0.50;;;;;;;8.43;100.00;99529.63;4993328;28;20042;-83
2023/01/13 03:09:31;;;;;;;0.60;0.60;;;;;;;8.50;100.00;99530.31;4985259;28;20089;-83
2023/01/13 03:12:09;;;;;;;0.82;0.60;;;;;;;8.40;100.00;99525.28;4977335;28;20037;-84
2023/01/13 03:14:52;;;;;;;0.77;0.57;;;;;;;8.36;100.00;99512.28;4977297;28;20044;-84
2023/01/13 03:17:37;;;;;;;0.70;0.45;;;;;;;8.50;100.00;99502.22;4971363;28;20046;-83
2023/01/13 03:20:26;;;;;;;1.07;0.73;;;;;;;8.54;100.00;99508.25;4995088;28;20042;-81
2023/01/13 03:23:01;;;;;;;0.52;0.50;;;;;;;8.46;100.00;99519.84;4994734;28;20042;-84
2023/01/13 03:25:30;;;;;;;0.93;0.40;;;;;;;8.42;100.00;99520.88;5057867;23;20417;-81
2023/01/13 03:28:01;;;;;;;0.47;0.43;;;;;;;8.47;100.00;99520.72;5004850;28;20069;-81
2023/01/13 03:30:34;;;;;;;1.00;0.60;;;;;;;8.50;100.00;99530.31;5116725;22;20101;-80
2023/01/13 03:33:09;;;;;;;1.23;0.60;;;;;;;8.44;100.00;99532.22;5072496;23;20044;-84
2023/01/13 03:35:39;;;;;;;0.87;0.70;;;;;;;8.41;100.00;99520.94;5037717;28;20044;-83
2023/01/13 03:38:18;;;;;;;0.70;0.60;;;;;;;8.41;100.00;99523.56;5036551;28;20040;-83
2023/01/13 03:40:49;;;;;;;0.95;0.60;;;;;;;8.44;100.00;99516.41;5019463;28;20032;-83
2023/01/13 03:46:13;;;;;;;1.33;0.70;;;;;;;8.44;100.00;99518.19;5021684;28;20561;-83
2023/01/13 03:48:42;;;;;;;0.40;0.40;;;;;;;8.41;100.00;99520.94;5020826;28;20660;-83
2023/01/13 03:51:12;;;;;;;0.70;0.60;;;;;;;8.40;100.00;99514.78;5019938;28;20037;-83
2023/01/13 03:53:45;;;;;;;2.00;0.57;;;;;;;8.40;100.00;99519.16;5020762;28;20036;-84
2023/01/13 03:56:22;;;;;;;0.80;0.50;;;;;;;8.44;100.00;99524.31;5075917;23;20111;-82
2023/01/13 03:58:50;;;;;;;0.68;0.60;;;;;;;8.39;100.00;99520.94;5056757;23;20091;-81
2023/01/13 04:01:41;;;;;;;0.97;0.50;;;;;;;8.41;100.00;99519.16;5043566;28;20040;-81
2023/01/13 04:04:25;;;;;;;0.98;0.55;;;;;;;8.41;100.00;99506.00;5035741;28;20069;-82
2023/01/13 04:07:02;;;;;;;2.10;0.65;;;;;;;8.44;100.00;99500.63;5034749;28;20052;-82
2023/01/13 04:09:50;;;;;;;0.60;0.50;;;;;;;8.46;100.00;99490.03;5032139;28;20047;-81
2023/01/13 04:15:23;;;;;;;1.20;1.07;;;;;;;8.34;100.00;99504.41;5042246;28;20045;-82
2023/01/13 04:17:50;;;;;;;1.00;0.50;;;;;;;8.35;100.00;99510.56;5018733;28;20045;-81
2023/01/13 04:20:17;;;;;;;1.38;0.60;;;;;;;8.43;100.00;99504.16;5021757;28;20052;-82
2023/01/13 04:22:43;;;;;;;0.57;0.50;;;;;;;8.42;100.00;99489.28;5038075;28;20040;-83
2023/01/13 04:25:10;;;;;;;0.93;0.63;;;;;;;8.43;100.00;99477.00;5035772;28;20581;-81
2023/01/13 04:27:40;;;;;;;0.70;0.40;;;;;;;8.51;100.00;99485.50;5021985;28;20047;-81
2023/01/13 04:30:07;;;;;;;0.47;0.40;;;;;;;8.44;100.00;99502.41;5047952;28;20086;-83
2023/01/13 04:32:37;;;;;;;0.67;0.50;;;;;;;8.53;100.00;99506.53;5053486;28;20029;-83
2023/01/13 04:35:04;;;;;;;0.50;0.50;;;;;;;8.59;100.00;99514.25;5035965;28;20044;-82
2023/01/13 04:37:30;;;;;;;0.50;0.50;;;;;;;8.53;100.00;99512.66;5029303;28;20051;-84
2023/01/13 04:39:57;;;;;;;0.67;0.50;;;;;;;8.52;100.00;99524.09;5039225;28;20048;-81
2023/01/13 04:42:24;;;;;;;0.50;0.50;;;;;;;8.47;100.00;99531.25;5034367;28;20040;-82
2023/01/13 04:44:50;;;;;;;0.60;0.60;;;;;;;8.37;100.00;99525.41;5042132;28;20066;-81
2023/01/13 04:47:17;;;;;;;0.50;0.30;;;;;;;8.41;100.00;99524.41;5030025;28;20051;-82
2023/01/13 04:49:44;;;;;;;0.40;0.33;;;;;;;8.46;100.00;99526.91;5006001;28;20095;-82
2023/01/13 04:52:11;;;;;;;0.60;0.60;;;;;;;8.44;100.00;99529.56;5023385;28;20044;-83
2023/01/13 04:54:38;;;;;;;0.50;0.50;;;;;;;8.43;100.00;99541.03;5041548;28;20512;-81
2023/01/13 04:57:05;;;;;;;0.70;0.40;;;;;;;8.34;100.00;99550.94;5026941;28;20073;-82
2023/01/13 04:59:35;;;;;;;0.70;0.40;;;;;;;8.36;100.00;99530.72;5048553;28;20091;-81
2023/01/13 05:02:02;;;;;;;0.90;0.50;;;;;;;8.37;100.00;99543.81;5036098;28;20037;-81
2023/01/13 05:04:28;;;;;;;0.50;0.50;;;;;;;8.32;100.00;99542.19;5041187;28;20120;-82
2023/01/13 05:06:57;;;;;;;1.95;0.52;;;;;;;8.28;100.00;99556.34;5055677;28;20450;-81
2023/01/13 05:09:27;;;;;;;2.38;0.57;;;;;;;8.33;100.00;99571.13;5041413;28;20119;-82
2023/01/13 05:17:27;;;;;;;0.70;0.50;;;;;;;8.29;100.00;99572.09;5035095;28;20409;-81
2023/01/13 05:19:53;;;;;;;0.73;0.50;;;;;;;8.35;100.00;99561.44;5039557;28;20471;-82
2023/01/13 05:25:20;;;;;;;1.10;0.50;;;;;;;8.38;100.00;99574.50;5045114;28;20048;-82
2023/01/13 05:27:52;;;;;;;0.83;0.50;;;;;;;8.33;100.00;99563.22;5019658;28;20049;-81
2023/01/13 05:30:20;;;;;;;0.53;0.40;;;;;;;8.21;100.00;99568.81;5053222;28;20045;-83
2023/01/13 05:32:49;;;;;;;0.43;0.33;;;;;;;8.23;100.00;99564.38;5012086;28;20477;-81
2023/01/13 05:35:16;;;;;;;0.80;0.50;;;;;;;8.26;100.00;99571.34;5058497;28;20041;-81
2023/01/13 05:37:43;;;;;;;0.50;0.50;;;;;;;8.36;100.00;99573.69;5034333;28;20098;-82
2023/01/13 05:43:21;;;;;;;0.97;0.40;;;;;;;8.33;100.00;99560.59;5056652;28;20094;-81
2023/01/13 05:46:02;;;;;;;1.80;0.50;;;;;;;8.37;100.00;99567.50;5039474;28;20041;-81
2023/01/13 05:48:35;;;;;;;0.50;0.50;;;;;;;8.41;100.00;99578.81;5038652;28;20045;-82
2023/01/13 05:51:03;;;;;;;0.50;0.50;;;;;;;8.40;100.00;99574.44;5021099;28;20041;-82
2023/01/13 05:53:30;;;;;;;0.47;0.47;;;;;;;8.40;100.00;99569.19;5034949;28;20041;-81
2023/01/13 05:56:00;;;;;;;0.50;0.50;;;;;;;8.39;100.00;99583.25;5030665;28;20032;-82
2023/01/13 05:58:26;;;;;;;0.40;0.40;;;;;;;8.43;100.00;99583.13;5024021;28;20048;-81
2023/01/13 06:00:59;;;;;;;0.63;0.60;;;;;;;8.45;100.00;99585.72;5037857;28;20091;-81
2023/01/13 06:03:31;;;;;;;1.80;0.50;;;;;;;8.36;100.00;99588.59;5028263;28;20041;-81
2023/01/13 06:06:00;;;;;;;0.47;0.47;;;;;;;8.44;100.00;99587.47;5034081;28;20477;-81
2023/01/13 06:08:27;;;;;;;1.02;0.80;;;;;;;8.41;100.00;99594.63;5023888;28;20067;-81
2023/01/13 06:10:57;;;;;;;1.03;0.70;;;;;;;8.35;100.00;99590.38;5021323;28;20051;-82
2023/01/13 06:13:25;;;;;;;0.93;0.73;;;;;;;8.33;100.00;99586.03;5053026;28;20489;-81
2023/01/13 06:15:56;;;;;;;1.50;0.50;;;;;;;8.27;100.00;99588.84;5019951;28;20048;-80
2023/01/13 06:18:23;;;;;;;0.50;0.50;;;;;;;8.29;100.00;99585.25;5038255;28;20048;-82
2023/01/13 06:20:53;;;;;;;0.47;0.40;;;;;;;8.26;100.00;99579.22;5039639;28;20477;-80
2023/01/13 06:23:20;;;;;;;0.60;0.60;;;;;;;8.21;100.00;99589.88;5034183;28;20052;-81
2023/01/13 06:26:06;;;;;;;1.33;0.40;;;;;;;8.25;100.00;99594.16;5037777;28;20037;-81
2023/01/13 06:28:33;;;;;;;0.45;0.45;;;;;;;8.38;100.00;99585.03;5019715;28;20394;-81
2023/01/13 06:31:02;;;;;;;0.70;0.50;;;;;;;8.24;100.00;99583.66;5019982;28;20052;-81
2023/01/13 06:33:32;;;;;;;2.38;0.73;;;;;;;8.14;100.00;99583.03;5036721;28;20051;-81
2023/01/13 06:36:03;;;;;;;1.60;0.70;;;;;;;8.13;100.00;99579.56;5032971;28;20048;-82
2023/01/13 06:38:33;;;;;;;1.60;0.60;;;;;;;8.04;100.00;99585.06;5039055;28;20132;-81
2023/01/13 06:41:00;;;;;;;1.90;0.68;;;;;;;8.05;100.00;99591.19;5037199;28;20051;-81
2023/01/13 06:43:27;;;;;;;1.63;0.60;;;;;;;8.00;100.00;99593.97;5025018;28;20056;-80
2023/01/13 06:45:54;;;;;;;1.67;0.60;;;;;;;8.12;100.00;99595.38;5037418;28;20087;-80
2023/01/13 06:48:23;;;;;;;1.77;0.90;;;;;;;8.08;100.00;99597.25;5028472;28;20087;-80
2023/01/13 06:50:50;;;;;;;1.27;0.83;;;;;;;8.07;100.00;99610.41;5018869;28;20040;-80
2023/01/13 06:53:17;;;;;;;1.63;0.80;;;;;;;8.17;100.00;99602.25;5054487;28;20680;-81
2023/01/13 06:55:43;;;;;;;2.90;1.47;;;;;;;8.15;100.00;99616.34;5044867;28;20037;-81
2023/01/13 06:58:10;;;;;;;6.93;1.23;;;;;;;8.09;100.00;99614.75;5037124;28;20036;-81
2023/01/13 07:00:37;;;;;;;2.13;1.00;;;;;;;8.15;100.00;99614.56;5048158;28;20493;-80
2023/01/13 07:03:09;;;;;;;1.30;0.73;;;;;;;8.07;100.00;99613.94;5065369;28;20033;-80
2023/01/13 07:05:36;;;;;;;1.97;1.17;;;;;;;8.01;100.00;99608.84;5036882;28;20486;-80
2023/01/13 07:08:03;;;;;;;1.77;0.80;;;;;;;8.18;100.00;99618.91;5053390;28;20083;-81
2023/01/13 07:10:30;;;;;;;3.27;1.30;;;;;;;8.15;100.00;99618.97;5039452;28;20083;-81
2023/01/13 07:16:03;;;;;;;1.73;0.90;;;;;;;8.13;100.00;99612.88;5038638;28;20048;-80
2023/01/13 07:18:32;;;;;;;2.57;1.10;;;;;;;7.92;100.00;99634.53;5038091;28;20044;-80
2023/01/13 07:21:09;;;;;;;2.67;1.10;;;;;;;7.86;100.00;99628.50;5034318;28;20040;-81
2023/01/13 07:23:38;;;;;;;1.33;0.90;;;;;;;7.94;100.00;99627.44;5038413;28;20064;-82
2023/01/13 07:26:06;;;;;;;3.57;1.10;;;;;;;7.96;100.00;99639.66;5025201;28;20076;-81
2023/01/13 07:28:33;;;;;;;2.80;1.10;;;;;;;7.99;100.00;99608.03;5041804;28;20415;-81
2023/01/13 07:31:00;;;;;;;3.47;1.10;;;;;;;7.95;100.00;99609.00;5024328;28;20048;-80
2023/01/13 07:33:26;;;;;;;2.70;1.10;;;;;;;8.02;100.00;99628.09;5021786;28;20053;-80
2023/01/13 07:36:01;;;;;;;2.63;1.33;;;;;;;8.04;100.00;99614.00;5057619;28;20095;-82
2023/01/13 07:38:29;;;;;;;2.30;1.10;;;;;;;8.10;100.00;99612.97;5058939;28;20037;-80
2023/01/13 07:40:55;;;;;;;3.30;1.50;;;;;;;8.06;100.00;99611.31;5035664;28;20136;-80
2023/01/13 07:43:33;;;;;;;2.13;1.10;;;;;;;7.94;100.00;99619.56;5039579;28;20059;-80
2023/01/13 07:46:06;;;;;;;3.00;1.00;;;;;;;7.83;100.00;99630.38;5046987;28;20127;-80
2023/01/13 07:48:33;;;;;;;3.10;1.00;;;;;;;7.90;100.00;99637.16;5057500;28;20064;-80
2023/01/13 07:51:01;;;;;;;1.10;0.90;;;;;;;7.79;100.00;99633.97;5039366;28;20403;-81
2023/01/13 07:53:28;;;;;;;2.90;1.10;;;;;;;7.72;100.00;99638.50;5024110;28;20044;-82
2023/01/13 07:55:59;;;;;;;1.13;0.80;;;;;;;7.60;100.00;99641.44;5040633;28;20173;-80
2023/01/13 07:58:26;;;;;;;3.03;1.00;;;;;;;7.57;100.00;99625.75;5053988;28;20396;-80
2023/01/13 08:00:54;;;;;;;2.43;1.10;;;;;;;7.58;100.00;99611.72;5040743;28;20489;-80
2023/01/13 08:03:21;;;;;;;1.93;1.07;;;;;;;7.52;100.00;99623.22;5022914;28;20045;-80
2023/01/13 08:05:48;;;;;;;1.83;0.80;;;;;;;7.50;100.00;99625.03;5051027;28;20047;-80
2023/01/13 08:08:15;;;;;;;1.47;1.10;;;;;;;7.44;100.00;99632.22;5038436;28;20153;-81
2023/01/13 08:10:42;;;;;;;1.70;0.97;;;;;;;7.44;100.00;99626.94;5023569;28;20487;-80
2023/01/13 08:13:16;;;;;;;1.73;1.13;;;;;;;7.41;100.00;99632.28;5041257;28;20032;-80
2023/01/13 08:15:43;;;;;;;3.03;1.33;;;;;;;7.47;100.00;99632.97;5053700;28;20489;-80
2023/01/13 08:18:10;;;;;;;3.47;0.90;;;;;;;7.42;100.00;99644.53;5039922;28;20488;-80
2023/01/13 08:20:37;;;;;;;2.53;1.37;;;;;;;7.37;100.00;99638.50;5054302;28;20041;-80
2023/01/13 08:23:03;;;;;;;1.73;0.93;;;;;;;7.41;100.00;99629.66;5051912;28;20028;-81
2023/01/13 08:25:32;;;;;;;2.13;1.10;;;;;;;7.45;100.00;99641.81;5036677;28;20408;-81
2023/01/13 08:27:59;;;;;;;2.17;1.10;;;;;;;7.48;100.00;99652.25;5052324;28;20040;-79
2023/01/13 08:30:29;;;;;;;1.50;0.90;;;;;;;7.48;100.00;99649.63;5042827;28;20839;-80
2023/01/13 08:32:56;;;;;;;1.90;0.90;;;;;;;7.62;100.00;99658.91;5043811;28;20032;-79
2023/01/13 08:35:23;;;;;;;1.27;0.97;;;;;;;7.64;100.00;99666.75;5023189;28;20141;-81
2023/01/13 08:37:50;;;;;;;1.27;1.17;;;;;;;7.65;100.00;99667.59;5042196;28;20064;-80
2023/01/13 08:40:18;;;;;;;1.93;0.90;;;;;;;7.65;100.00;99665.88;5025206;28;20052;-80
2023/01/13 08:42:44;;;;;;;1.57;1.00;;;;;;;7.69;100.00;99670.13;5021915;28;20037;-80
2023/01/13 08:45:14;;;;;;;3.57;1.53;;;;;;;7.79;100.00;99676.88;5058875;28;20036;-79
2023/01/13 08:47:40;;;;;;;3.53;1.47;;;;;;;7.90;100.00;99677.50;5042496;28;20063;-81
2023/01/13 08:50:08;;;;;;;2.30;1.10;;;;;;;7.87;100.00;99663.56;5053487;28;20452;-80
2023/01/13 08:52:34;;;;;;;3.10;1.17;;;;;;;7.95;100.00;99671.25;5024279;28;20037;-80
2023/01/13 08:55:04;;;;;;;5.23;1.63;;;;;;;7.98;100.00;99673.78;5052476;28;20040;-80
2023/01/13 08:57:31;;;;;;;2.33;1.23;;;;;;;8.04;100.00;99665.75;5042161;28;20047;-80
2023/01/13 08:59:58;;;;;;;3.93;1.30;;;;;;;8.09;100.00;99671.75;5058075;28;20040;-80
2023/01/13 09:02:25;;;;;;;3.60;1.63;;;;;;;7.96;100.00;99676.47;5025534;28;20033;-81
2023/01/13 09:04:52;;;;;;;3.33;1.40;;;;;;;8.06;100.00;99677.94;5024078;28;20036;-80
2023/01/13 09:07:19;;;;;;;3.43;1.77;;;;;;;8.09;100.00;99670.00;5009318;28;20048;-80
2023/01/13 09:09:45;;;;;;;2.47;1.63;;;;;;;8.14;100.00;99675.97;5028051;28;20048;-81
2023/01/13 09:15:00;;;;;;;5.10;1.40;;;;;;;8.24;100.00;99676.63;5058738;28;20044;-80
2023/01/13 09:17:27;;;;;;;1.65;1.20;;;;;;;8.29;100.00;99671.22;5046240;28;20037;-80
2023/01/13 09:19:54;;;;;;;3.10;1.17;;;;;;;8.26;100.00;99664.28;5023626;28;20112;-81
2023/01/13 09:22:21;;;;;;;3.07;1.10;;;;;;;8.25;100.00;99659.94;5013912;28;20048;-80
2023/01/13 09:24:47;;;;;;;4.28;1.30;;;;;;;8.19;100.00;99658.31;5010091;28;20037;-81
2023/01/13 09:27:14;;;;;;;2.23;1.00;;;;;;;8.30;100.00;99676.44;5055458;28;20036;-81
2023/01/13 09:29:41;;;;;;;1.25;0.90;;;;;;;8.23;100.00;99664.34;5043778;28;20041;-81
2023/01/13 09:32:11;;;;;;;2.70;1.17;;;;;;;8.26;100.00;99669.56;5037664;28;20037;-81
2023/01/13 09:37:23;;;;;;;2.70;1.20;;;;;;;8.20;100.00;99656.56;5034578;28;20420;-79
2023/01/13 09:39:53;;;;;;;2.80;1.27;;;;;;;8.36;100.00;99655.25;5043076;28;20047;-80
2023/01/13 09:45:23;;;;;;;2.00;0.93;;;;;;;8.32;100.00;99657.97;5044562;28;20048;-81
2023/01/13 09:47:56;;;;;;;2.00;1.10;;;;;;;8.43;100.00;99667.34;5078958;23;20072;-81
2023/01/13 09:50:40;;;;;;;1.40;0.80;;;;;;;8.48;100.00;99654.03;5001094;28;20052;-81
2023/01/13 09:53:39;;;;;;;1.88;0.95;;;;;;;8.41;100.00;99653.38;5020090;28;20068;-80
2023/01/13 09:56:09;;;;;;;2.53;1.20;;;;;;;8.52;100.00;99652.22;5026525;28;20050;-80
2023/01/13 09:58:36;;;;;;;2.10;0.98;;;;;;;8.63;100.00;99650.13;5003811;28;20068;-81
2023/01/13 10:01:24;;;;;;;2.77;0.93;;;;;;;8.55;100.00;99650.34;5021379;28;20060;-81
2023/01/13 10:03:52;;;;;;;1.97;1.00;;;;;;;8.61;100.00;99651.94;5021189;28;20061;-81
2023/01/13 10:06:23;;;;;;;2.13;1.03;;;;;;;8.59;100.00;99651.13;4996071;28;20132;-80
2023/01/13 10:08:50;;;;;;;1.53;0.90;;;;;;;8.64;100.00;99654.47;4987736;28;20060;-82
2023/01/13 10:14:12;;;;;;;3.00;1.10;;;;;;;8.74;100.00;99661.19;5031072;28;20473;-80
2023/01/13 10:16:44;;;;;;;2.57;0.80;;;;;;;8.71;100.00;99661.31;5053590;28;20049;-80
2023/01/13 10:19:26;;;;;;;2.13;1.17;;;;;;;8.74;100.00;99664.72;5020871;28;20045;-80
2023/01/13 10:22:10;;;;;;;16.88;2.00;;;;;;;8.83;100.00;99652.16;5016018;28;20529;-80
2023/01/13 10:25:17;;;;;;;2.22;1.17;;;;;;;8.75;100.00;99647.16;5029395;28;20045;-81
2023/01/13 10:27:48;;;;;;;2.80;0.82;;;;;;;8.82;100.00;99648.69;5018110;28;20482;-80
2023/01/13 10:30:29;;;;;;;1.83;1.00;;;;;;;8.85;100.00;99647.75;5002507;28;20056;-79
2023/01/13 10:33:10;;;;;;;3.90;1.40;;;;;;;8.97;100.00;99648.22;5001357;28;20069;-79
2023/01/13 10:35:47;;;;;;;3.50;1.00;;;;;;;9.03;100.00;99649.81;5033987;28;20033;-80
2023/01/13 10:38:28;;;;;;;8.85;1.85;;;;;;;9.13;100.00;99653.91;5033582;28;20045;-80
2023/01/13 10:41:00;;;;;;;2.28;1.00;;;;;;;9.21;100.00;99640.50;4997159;28;20128;-79
2023/01/13 10:43:30;;;;;;;2.28;1.38;;;;;;;9.28;100.00;99642.88;4997630;28;20042;-79
2023/01/13 10:46:03;;;;;;;2.92;1.35;;;;;;;9.35;100.00;99640.06;5000420;28;20517;-80
2023/01/13 10:48:31;;;;;;;3.00;1.15;;;;;;;9.39;100.00;99641.69;4999780;28;20134;-80
2023/01/13 10:51:09;;;;;;;3.03;1.35;;;;;;;9.41;100.00;99645.13;4997648;28;20049;-80
2023/01/13 10:53:51;;;;;;;2.67;1.40;;;;;;;9.39;99.30;99641.69;5001791;28;20038;-80
2023/01/13 10:56:19;;;;;;;6.22;1.73;;;;;;;9.39;99.85;99646.94;5006828;28;20438;-79
2023/01/13 10:58:46;;;;;;;5.25;1.27;;;;;;;9.36;96.26;99653.19;4997712;28;20056;-81
2023/01/13 11:01:24;;;;;;;5.40;1.63;;;;;;;9.26;94.73;99633.31;4997873;28;20057;-79
2023/01/13 11:03:53;;;;;;;4.03;1.60;;;;;;;9.23;97.86;99639.53;5014846;28;20048;-79
2023/01/13 11:06:23;;;;;;;3.60;1.40;;;;;;;9.16;95.88;99642.38;5014840;28;20050;-80
2023/01/13 11:08:53;;;;;;;3.90;1.30;;;;;;;9.23;95.56;99634.25;4994413;28;20045;-79
2023/01/13 11:11:24;;;;;;;3.53;1.50;;;;;;;9.08;93.30;99642.66;4995867;28;20045;-80
2023/01/13 11:16:41;;;;;;;4.38;1.55;;;;;;;9.12;91.35;99654.81;4999280;28;20045;-80
2023/01/13 11:19:20;;;;;;;5.25;1.75;;;;;;;9.13;89.18;99637.22;5013846;28;20049;-80
2023/01/13 11:21:55;;;;;;;3.55;1.77;;;;;;;9.09;88.51;99644.38;5030131;28;20048;-80
2023/01/13 11:24:39;;;;;;;5.18;1.52;;;;;;;9.15;88.89;99649.44;5014603;28;20051;-79
2023/01/13 11:27:26;;;;;;;5.40;1.80;;;;;;;9.14;88.85;99649.50;5010415;28;20041;-80
2023/01/13 11:30:02;;;;;;;2.65;1.42;;;;;;;9.18;89.82;99648.50;4979634;28;20144;-80
2023/01/13 11:32:33;;;;;;;2.95;1.50;;;;;;;9.19;87.48;99647.59;4962029;28;20038;-80
2023/01/13 11:35:03;;;;;;;4.50;1.30;;;;;;;9.41;91.16;99642.47;5010658;28;20143;-80
2023/01/13 11:37:32;;;;;;;6.32;1.65;;;;;;;9.67;86.98;99639.00;4992647;28;20038;-79
2023/01/13 11:40:04;;;;;;;5.25;1.80;;;;;;;9.73;82.85;99644.06;5011671;28;20038;-80
2023/01/13 11:42:47;;;;;;;4.72;1.50;;;;;;;9.81;81.17;99639.41;4992882;28;20041;-80
2023/01/13 11:45:29;;;;;;;5.10;1.40;;;;;;;9.67;82.08;99634.63;5009566;28;20064;-79
2023/01/13 11:47:57;;;;;;;4.70;1.40;;;;;;;9.46;82.51;99640.56;4979987;28;20045;-80
2023/01/13 11:50:33;;;;;;;6.00;1.90;;;;;;;9.39;84.22;99637.25;5013143;28;20060;-80
2023/01/13 11:53:14;;;;;;;4.63;1.80;;;;;;;9.44;85.52;99631.88;4996293;28;20037;-80
2023/01/13 11:56:15;;;;;;;3.95;1.48;;;;;;;9.45;85.11;99637.06;5007603;28;20054;-79
2023/01/13 11:59:04;;;;;;;4.57;1.70;;;;;;;9.63;87.35;99638.25;5022656;28;20057;-79
2023/01/13 12:01:58;;;;;;;5.35;1.20;;;;;;;9.63;85.47;99643.53;4989884;28;20037;-80
2023/01/13 12:04:31;;;;;;;3.92;1.10;;;;;;;9.63;86.37;99650.56;5013477;28;20662;-79
2023/01/13 12:07:21;;;;;;;4.43;1.55;;;;;;;9.62;86.58;99651.50;5016995;28;20041;-80
2023/01/13 12:10:00;;;;;;;4.05;1.65;;;;;;;9.53;85.96;99642.09;4994888;28;20522;-80
2023/01/13 12:12:55;;;;;;;3.08;1.38;;;;;;;9.42;87.71;99650.38;5001558;28;20050;-79
2023/01/13 12:15:43;;;;;;;4.30;1.10;;;;;;;9.51;86.46;99651.84;5017595;28;20136;-80
2023/01/13 12:18:44;;;;;;;2.47;1.30;;;;;;;9.46;86.84;99651.13;4985890;28;20054;-78
2023/01/13 12:21:18;;;;;;;3.85;1.50;;;;;;;9.47;87.40;99647.56;4984631;28;20061;-79
2023/01/13 12:24:02;;;;;;;4.13;1.70;;;;;;;9.43;86.82;99645.97;4985412;28;20525;-80
2023/01/13 12:26:31;;;;;;;4.38;1.15;;;;;;;9.24;85.45;99653.56;5000909;28;20774;-79
2023/01/13 12:29:02;;;;;;;2.15;1.20;;;;;;;9.21;88.07;99665.06;5017465;28;20758;-80
2023/01/13 12:31:29;;;;;;;4.85;1.30;;;;;;;9.23;93.24;99655.34;5000170;28;20356;-79
2023/01/13 12:34:21;;;;;;;3.75;1.33;;;;;;;9.22;92.14;99653.63;4989156;28;20037;-80
2023/01/13 12:37:09;;;;;;;6.00;1.85;;;;;;;9.16;92.97;99647.66;5015618;28;20042;-81
2023/01/13 12:40:05;;;;;;;6.93;1.55;;;;;;;9.16;93.17;99651.16;4992220;28;20430;-81